Buckland, AK

11:56 AM AKDT on October 23, 2014 (GMT -0800)
Buckland | Change Station
CLOSE
Current Station
Airport
Location: Buckland,
Elevation: 30 ft
Nearby Weather Stations

Elev 30 ft 65.98 °N, 161.15 °W | Updated 20 minutes ago

Overcast
Overcast
12 °F
Feels Like 4 °F
N
5
Wind Variable Wind from South

Today
High -- | Low -- °F
--% Chance of Precip.
Yesterday
High -- | Low -- °F
Precip. -- in
10:08 AM 6:47 PM
Waning Crescent, 0% visible
Pressure 29.80 in
Visibility 10.0 miles
Clouds Overcast 2000 ft
Windchill 4 °F
Dew Point 9 °F
Humidity 85%
Rainfall 0.00 in
Snow Depth Not available.
UV 0 out of 12
Pollen Not available.
Air Quality Not available.
Flu Activity Sporadic
METAR PABL 231936Z AUTO 19004KT 10SM OVC020 M11/M13 A2980 RMK AO1

More Conditions Fewer Conditions

Pressure 29.80 in
Visibility 10.0 miles
Clouds Overcast 2000 ft
Windchill 4 °F
Dew Point 9 °F
Humidity 85%
Rainfall 0.00 in
Snow Depth Not available.
UV 0 out of 12
Pollen Not available.
Air Quality Not available.
Flu Activity Sporadic
METAR PABL 231936Z AUTO 19004KT 10SM OVC020 M11/M13 A2980 RMK AO1

More Conditions Fewer Conditions

10-Day Weather Forecast

Almanac

Astronomy

Oct. 23, 2014 Rise Set
Actual Time 10:08 AM AKDT 6:47 PM AKDT
Civil Twilight 9:14 AM AKDT 7:42 PM AKDT
Nautical Twilight 8:14 AM AKDT 8:41 PM AKDT
Astronomical Twilight 7:14 AM AKDT 9:40 PM AKDT
Moon 9:58 AM AKDT 6:51 PM AKDT
Length of Visible Light 10h 27m
Length of Day
8h 38m
Tomorrow will be 7m 11s shorter.
Waning Crescent, 0% of the Moon is Illuminated
Today
Waning Crescent
Oct 23
New
Oct 30
First Quarter
Nov 6
Full
Nov 14
Last Quarter

Today's Extremes

State Highs State Lows

Community

WunderPhotos

Upload Photos

1,764,350 photos uploaded!

WunderBlogs® & News

By Dr. Jeff Masters
Director of Meteorology, Weather Underground
By Kari Strenfel
Meteorologist, Weather Underground
By Christopher C. Burt
Weather Historian, Weather Underground
October 23, 2014
October 23, 2014
October 23, 2014

Nearby

Snow Depth

Station Depth Elevation
Pargon Creek 0 in 300 ft
Rocky Point 3 in 500 ft
Gobblers Knob 2 in 2030 ft
Coldfoot 4 in 1040 ft
Atigun Pass 15 in 4800 ft

Earthquake Activity

City Distance Mag. Time & Date
No recent earthquake activity has been reported nearby.
Minimum magnitude displayed is 2.5.

Coastal Water Temperatures

Place Temperature
No Stations Reporting

Nearby Weather Stations